createdAt,value
2018-01-27T00:01:19.586Z,8.00
2018-01-27T00:03:47.087Z,7.90
2018-01-27T00:06:14.568Z,8.00
2018-01-27T00:08:42.061Z,8.00
2018-01-27T00:11:09.544Z,7.90
2018-01-27T00:13:37.043Z,7.80
2018-01-27T00:16:04.518Z,7.70
2018-01-27T00:18:32.019Z,7.60
2018-01-27T00:21:00.263Z,7.50
2018-01-27T00:23:27.771Z,7.50
2018-01-27T00:25:56.014Z,7.50
2018-01-27T00:28:23.510Z,7.40
2018-01-27T00:30:50.983Z,7.40
2018-01-27T00:33:18.483Z,7.40
2018-01-27T00:35:46.079Z,7.40
2018-01-27T00:38:13.582Z,7.40
2018-01-27T00:40:41.064Z,7.40
2018-01-27T00:43:08.555Z,7.50
2018-01-27T00:45:36.809Z,7.50
2018-01-27T00:48:04.306Z,7.50
2018-01-27T00:50:31.787Z,7.50
2018-01-27T00:53:00.043Z,7.30
2018-01-27T00:55:27.519Z,7.20
2018-01-27T00:57:55.019Z,7.20
2018-01-27T01:00:23.266Z,7.00
2018-01-27T01:02:50.762Z,6.90
2018-01-27T01:05:18.243Z,6.90
2018-01-27T01:07:46.511Z,7.00
2018-01-27T01:10:13.995Z,6.90
2018-01-27T01:12:42.257Z,6.90
2018-01-27T01:15:09.730Z,6.90
2018-01-27T01:17:37.231Z,6.90
2018-01-27T01:20:05.475Z,6.90
2018-01-27T01:22:32.971Z,6.80
2018-01-27T01:25:00.451Z,6.80
2018-01-27T01:27:28.715Z,6.70
2018-01-27T01:29:56.192Z,6.70
2018-01-27T01:32:23.692Z,6.70
2018-01-27T01:34:51.934Z,6.70
2018-01-27T01:37:19.406Z,6.70
2018-01-27T01:39:46.944Z,6.70
2018-01-27T01:42:20.962Z,6.70
2018-01-27T01:44:48.463Z,6.70
2018-01-27T01:47:15.939Z,6.70
2018-01-27T01:49:43.435Z,6.60
2018-01-27T01:52:10.916Z,6.60
2018-01-27T01:54:39.180Z,6.60
2018-01-27T01:57:06.662Z,6.50
2018-01-27T01:59:34.160Z,6.50
2018-01-27T02:02:01.639Z,6.60
2018-01-27T02:04:29.139Z,6.60
2018-01-27T02:06:56.620Z,6.50
2018-01-27T02:09:24.114Z,6.50
2018-01-27T02:11:51.599Z,6.40
2018-01-27T02:14:19.868Z,6.40
2018-01-27T02:16:47.344Z,6.30
2018-01-27T02:19:15.614Z,6.40
2018-01-27T02:21:43.091Z,6.30
2018-01-27T02:24:10.700Z,6.30
2018-01-27T02:26:38.167Z,6.20
2018-01-27T02:29:05.663Z,6.10
2018-01-27T02:31:33.135Z,6.00
2018-01-27T02:34:00.626Z,6.10
2018-01-27T02:36:28.099Z,6.20
2018-01-27T02:38:55.595Z,6.10
2018-01-27T02:41:23.843Z,5.90
2018-01-27T02:43:51.330Z,5.90
2018-01-27T02:46:18.807Z,5.90
2018-01-27T02:48:46.308Z,5.90
2018-01-27T02:51:14.542Z,5.90
2018-01-27T02:53:42.036Z,5.80
2018-01-27T02:56:09.515Z,5.80
2018-01-27T02:58:37.011Z,5.70
2018-01-27T03:01:04.482Z,5.60
2018-01-27T03:03:31.979Z,5.60
2018-01-27T03:05:59.454Z,5.60
2018-01-27T03:08:26.942Z,5.40
2018-01-27T03:10:54.419Z,5.40
2018-01-27T03:13:21.910Z,5.50
2018-01-27T03:15:50.147Z,5.50
2018-01-27T03:18:17.648Z,5.50
2018-01-27T03:20:45.118Z,5.60
2018-01-27T03:23:12.619Z,5.60
2018-01-27T03:25:40.859Z,5.80
2018-01-27T03:28:08.367Z,5.80
2018-01-27T03:30:36.610Z,5.90
2018-01-27T03:33:04.102Z,5.90
2018-01-27T03:35:31.580Z,5.90
2018-01-27T03:37:59.083Z,5.90
2018-01-27T03:40:26.558Z,5.80
2018-01-27T03:42:54.036Z,5.70
2018-01-27T03:45:21.530Z,5.60
2018-01-27T03:47:49.007Z,5.60
2018-01-27T03:50:16.511Z,5.60
2018-01-27T03:52:43.991Z,5.60
2018-01-27T03:55:12.249Z,5.50
2018-01-27T03:57:39.734Z,5.40
2018-01-27T04:00:07.227Z,5.50
2018-01-27T04:02:34.702Z,5.50
2018-01-27T04:05:02.195Z,5.50
2018-01-27T04:07:29.678Z,5.40
2018-01-27T04:09:57.176Z,5.30
2018-01-27T04:12:28.587Z,5.40
2018-01-27T04:14:56.087Z,5.40
2018-01-27T04:17:23.580Z,5.60
2018-01-27T04:19:51.079Z,5.80
2018-01-27T04:22:18.566Z,6.00
2018-01-27T04:24:46.059Z,6.10
2018-01-27T04:27:13.538Z,6.00
2018-01-27T04:29:41.038Z,6.00
2018-01-27T04:32:08.519Z,6.00
2018-01-27T04:34:36.786Z,6.00
2018-01-27T04:37:04.265Z,5.90
2018-01-27T04:39:31.763Z,5.90
2018-01-27T04:41:59.249Z,5.90
2018-01-27T04:44:26.747Z,5.90
2018-01-27T04:46:54.222Z,5.80
2018-01-27T04:49:21.722Z,5.80
2018-01-27T04:51:49.199Z,5.90
2018-01-27T04:54:17.460Z,6.00
2018-01-27T04:56:44.939Z,5.90
2018-01-27T04:59:12.435Z,6.00
2018-01-27T05:01:40.674Z,5.80
2018-01-27T05:04:08.171Z,5.80
2018-01-27T05:06:35.646Z,5.60
2018-01-27T05:09:03.907Z,5.40
2018-01-27T05:11:31.395Z,5.40
2018-01-27T05:13:58.895Z,5.50
2018-01-27T05:16:26.371Z,5.60
2018-01-27T05:18:53.874Z,5.60
2018-01-27T05:21:21.392Z,5.60
2018-01-27T05:23:48.880Z,5.50
2018-01-27T05:26:16.361Z,5.40
2018-01-27T05:28:43.857Z,5.30
2018-01-27T05:31:11.335Z,5.30
2018-01-27T05:33:38.831Z,5.20
2018-01-27T05:36:06.310Z,5.20
2018-01-27T05:38:34.607Z,5.20
2018-01-27T05:41:02.834Z,5.20
2018-01-27T05:43:30.338Z,5.10
2018-01-27T05:45:57.814Z,5.10
2018-01-27T05:48:25.318Z,5.00
2018-01-27T05:50:52.794Z,4.90
2018-01-27T05:53:20.275Z,4.90
2018-01-27T05:55:47.767Z,4.90
2018-01-27T05:58:15.248Z,4.90
2018-01-27T06:00:42.734Z,4.90
2018-01-27T06:03:10.986Z,4.80
2018-01-27T06:05:38.475Z,4.70
2018-01-27T06:08:05.956Z,4.70
2018-01-27T06:10:33.444Z,4.70
2018-01-27T06:13:01.687Z,4.70
2018-01-27T06:15:29.179Z,4.60
2018-01-27T06:17:56.650Z,4.70
2018-01-27T06:20:24.144Z,4.70
2018-01-27T06:22:52.390Z,4.70
2018-01-27T06:25:19.879Z,4.60
2018-01-27T06:27:47.350Z,4.60
2018-01-27T06:30:14.847Z,4.60
2018-01-27T06:32:43.082Z,4.50
2018-01-27T06:35:10.575Z,4.50
2018-01-27T06:37:38.047Z,4.80
2018-01-27T06:40:05.542Z,4.90
2018-01-27T06:42:33.783Z,4.90
2018-01-27T06:45:01.273Z,4.90
2018-01-27T06:47:28.738Z,5.00
2018-01-27T06:49:56.231Z,5.00
2018-01-27T06:52:25.431Z,4.90
2018-01-27T06:54:54.143Z,4.80
2018-01-27T06:57:22.382Z,4.80
2018-01-27T06:59:49.880Z,4.70
2018-01-27T07:02:17.360Z,4.70
2018-01-27T07:04:44.852Z,4.70
2018-01-27T07:07:12.326Z,4.50
2018-01-27T07:09:39.819Z,4.50
2018-01-27T07:12:07.295Z,4.60
2018-01-27T07:14:34.796Z,4.50
2018-01-27T07:17:02.268Z,4.50
2018-01-27T07:19:47.559Z,4.40
2018-01-27T07:22:15.031Z,4.40
2018-01-27T07:24:42.519Z,4.50
2018-01-27T07:27:10.772Z,4.40
2018-01-27T07:29:38.269Z,4.30
2018-01-27T07:32:06.515Z,4.60
2018-01-27T07:34:34.014Z,4.50
2018-01-27T07:37:01.487Z,4.50
2018-01-27T07:39:28.990Z,4.50
2018-01-27T07:41:56.468Z,4.40
2018-01-27T07:44:23.971Z,4.50
2018-01-27T07:46:51.449Z,4.60
2018-01-27T07:49:18.948Z,4.60
2018-01-27T07:51:47.195Z,4.70
2018-01-27T07:54:14.691Z,4.60
2018-01-27T07:56:42.544Z,4.80
2018-01-27T07:59:10.043Z,4.70
2018-01-27T08:01:37.528Z,4.80
2018-01-27T08:04:05.816Z,5.10
2018-01-27T08:06:33.291Z,5.00
2018-01-27T08:09:01.564Z,5.00
2018-01-27T08:11:29.038Z,5.00
2018-01-27T08:13:57.310Z,5.10
2018-01-27T08:16:24.787Z,5.10
2018-01-27T08:18:52.263Z,5.00
2018-01-27T08:21:20.518Z,4.90
2018-01-27T08:23:47.991Z,4.80
2018-01-27T08:26:15.498Z,4.90
2018-01-27T08:28:43.730Z,4.90
2018-01-27T08:31:11.226Z,4.90
2018-01-27T08:33:38.702Z,5.00
2018-01-27T08:36:06.193Z,5.00
2018-01-27T08:38:34.439Z,5.10
2018-01-27T08:41:01.941Z,5.10
2018-01-27T08:43:29.485Z,5.40
2018-01-27T08:45:56.992Z,5.40
2018-01-27T08:48:24.467Z,5.20
2018-01-27T08:50:52.792Z,5.50
2018-01-27T08:53:20.994Z,5.40
2018-01-27T08:55:48.487Z,5.30
2018-01-27T08:58:15.981Z,5.40
2018-01-27T09:00:44.267Z,5.50
2018-01-27T09:03:12.520Z,5.70
2018-01-27T09:05:40.026Z,5.60
2018-01-27T09:08:08.268Z,5.80
2018-01-27T09:10:35.776Z,5.80
2018-01-27T09:13:04.036Z,5.60
2018-01-27T09:15:31.547Z,5.60
2018-01-27T09:17:59.795Z,5.60
2018-01-27T09:20:27.334Z,5.50
2018-01-27T09:22:54.815Z,5.60
2018-01-27T09:25:22.315Z,5.50
2018-01-27T09:27:49.800Z,5.50
2018-01-27T09:30:18.187Z,5.50
2018-01-27T09:32:45.662Z,5.50
2018-01-27T09:35:13.162Z,5.50
2018-01-27T09:37:40.638Z,5.40
2018-01-27T09:40:08.126Z,5.60
2018-01-27T09:42:36.370Z,5.50
2018-01-27T09:45:04.633Z,5.50
2018-01-27T09:47:32.103Z,5.40
2018-01-27T09:49:59.598Z,5.60
2018-01-27T09:52:27.842Z,5.60
2018-01-27T09:54:55.334Z,5.60
2018-01-27T09:57:22.815Z,5.60
2018-01-27T09:59:50.315Z,5.50
2018-01-27T10:02:17.786Z,5.50
2018-01-27T10:04:45.286Z,5.50
2018-01-27T10:07:12.764Z,5.70
2018-01-27T10:09:40.258Z,5.80
2018-01-27T10:12:07.735Z,5.70
2018-01-27T10:14:35.246Z,5.50
2018-01-27T10:17:02.714Z,5.40
2018-01-27T10:19:30.214Z,5.50
2018-01-27T10:21:57.690Z,5.50
2018-01-27T10:24:25.190Z,5.50
2018-01-27T10:26:52.676Z,5.60
2018-01-27T10:29:20.150Z,5.60
2018-01-27T10:31:47.651Z,5.50
2018-01-27T10:34:15.127Z,5.40
2018-01-27T10:36:42.632Z,5.40
2018-01-27T10:39:10.111Z,5.50
2018-01-27T10:41:37.607Z,5.60
2018-01-27T10:44:05.079Z,5.80
2018-01-27T10:46:32.571Z,5.60
2018-01-27T10:49:00.055Z,5.60
2018-01-27T10:51:27.555Z,5.70
2018-01-27T10:53:55.036Z,5.70
2018-01-27T10:56:23.299Z,5.80
2018-01-27T10:58:50.775Z,5.80
2018-01-27T11:01:18.894Z,5.90
2018-01-27T11:03:46.383Z,6.00
2018-01-27T11:06:13.886Z,5.90
2018-01-27T11:08:41.358Z,5.90
2018-01-27T11:11:08.851Z,6.10
2018-01-27T11:13:36.322Z,6.10
2018-01-27T11:16:04.603Z,6.30
2018-01-27T11:18:32.079Z,6.20
2018-01-27T11:20:59.579Z,6.30
2018-01-27T11:23:27.054Z,6.30
2018-01-27T11:25:54.548Z,6.20
2018-01-27T11:28:22.031Z,6.00
2018-01-27T11:30:49.532Z,5.80
2018-01-27T11:33:17.773Z,5.90
2018-01-27T11:35:45.279Z,5.90
2018-01-27T11:38:12.758Z,5.90
2018-01-27T11:40:40.267Z,5.80
2018-01-27T11:43:07.744Z,5.50
2018-01-27T11:45:35.227Z,5.50
2018-01-27T11:48:02.720Z,5.40
2018-01-27T11:50:30.206Z,5.50
2018-01-27T11:52:57.702Z,5.60
2018-01-27T11:55:25.183Z,5.70
2018-01-27T11:57:52.676Z,5.90
2018-01-27T12:00:20.153Z,6.00
2018-01-27T12:02:47.654Z,6.20
2018-01-27T12:05:15.135Z,6.20
2018-01-27T12:07:43.398Z,6.20
2018-01-27T12:10:10.883Z,6.20
2018-01-27T12:12:38.399Z,6.20
2018-01-27T12:15:05.876Z,6.30
2018-01-27T12:17:34.134Z,6.40
2018-01-27T12:20:01.619Z,6.30
2018-01-27T12:22:29.122Z,6.40
2018-01-27T12:24:56.627Z,6.40
2018-01-27T12:27:24.895Z,6.50
2018-01-27T12:29:52.379Z,6.40
2018-01-27T12:32:19.879Z,6.50
2018-01-27T12:34:47.355Z,6.50
2018-01-27T12:37:14.849Z,6.50
2018-01-27T12:39:42.328Z,6.50
2018-01-27T12:42:09.817Z,6.60
2018-01-27T12:44:37.314Z,6.60
2018-01-27T12:47:05.555Z,6.50
2018-01-27T12:49:33.054Z,6.50
2018-01-27T12:52:00.549Z,6.50
2018-01-27T12:54:28.052Z,6.40
2018-01-27T12:56:55.526Z,6.40
2018-01-27T12:59:23.026Z,6.40
2018-01-27T13:01:50.521Z,6.40
2018-01-27T13:04:18.783Z,6.40
2018-01-27T13:06:46.292Z,6.30
2018-01-27T13:09:13.790Z,6.40
2018-01-27T13:11:41.270Z,6.40
2018-01-27T13:14:08.766Z,6.40
2018-01-27T13:16:36.246Z,6.40
2018-01-27T13:19:03.750Z,6.30
2018-01-27T13:21:31.230Z,6.30
2018-01-27T13:23:58.730Z,6.30
2018-01-27T13:26:26.221Z,6.20
2018-01-27T13:28:53.725Z,6.30
2018-01-27T13:31:21.213Z,6.40
2018-01-27T13:33:48.726Z,6.50
2018-01-27T13:36:16.211Z,6.40
2018-01-27T13:38:44.491Z,6.20
2018-01-27T13:41:11.972Z,6.20
2018-01-27T13:43:40.211Z,6.20
2018-01-27T13:46:07.706Z,6.20
2018-01-27T13:48:35.188Z,6.30
2018-01-27T13:51:02.688Z,6.20
2018-01-27T13:53:30.179Z,6.30
2018-01-27T13:55:57.678Z,6.30
2018-01-27T13:58:25.158Z,6.30
2018-01-27T14:00:52.650Z,6.20
2018-01-27T14:03:20.900Z,6.20
2018-01-27T14:05:48.421Z,6.10
2018-01-27T14:08:15.906Z,6.10
2018-01-27T14:10:43.463Z,6.00
2018-01-27T14:13:10.906Z,6.00
2018-01-27T14:15:38.407Z,6.10
2018-01-27T14:18:05.882Z,6.10
2018-01-27T14:20:33.388Z,6.00
2018-01-27T14:23:00.862Z,5.80
2018-01-27T14:25:28.363Z,5.70
2018-01-27T14:27:55.914Z,5.70
2018-01-27T14:30:23.407Z,5.70
2018-01-27T14:32:51.655Z,5.60
2018-01-27T14:35:19.147Z,5.60
2018-01-27T14:37:46.619Z,5.50
2018-01-27T14:40:14.133Z,5.60
2018-01-27T14:42:41.611Z,5.50
2018-01-27T14:45:09.087Z,5.30
2018-01-27T14:47:36.582Z,5.30
2018-01-27T14:50:04.060Z,5.20
2018-01-27T14:52:31.554Z,5.30
2018-01-27T14:54:59.803Z,5.50
2018-01-27T14:57:27.297Z,5.40
2018-01-27T14:59:54.776Z,5.40
2018-01-27T15:02:22.267Z,5.20
2018-01-27T15:04:49.743Z,5.10
2018-01-27T15:07:17.234Z,5.10
2018-01-27T15:09:44.711Z,5.20
2018-01-27T15:12:12.206Z,5.30
2018-01-27T15:14:39.696Z,5.40
2018-01-27T15:17:07.201Z,5.40
2018-01-27T15:19:34.687Z,5.50
2018-01-27T15:22:02.943Z,5.50
2018-01-27T15:24:31.199Z,5.40
2018-01-27T15:26:58.699Z,5.40
2018-01-27T15:29:26.945Z,5.50
2018-01-27T15:31:54.443Z,5.40
2018-01-27T15:34:21.919Z,5.50
2018-01-27T15:36:49.417Z,5.50
2018-01-27T15:39:16.895Z,5.60
2018-01-27T15:41:44.391Z,5.70
2018-01-27T15:44:11.874Z,5.70
2018-01-27T15:46:39.393Z,5.70
2018-01-27T15:49:06.879Z,5.70
2018-01-27T15:51:34.391Z,5.70
2018-01-27T15:54:01.866Z,5.70
2018-01-27T15:56:29.366Z,5.60
2018-01-27T15:58:56.839Z,5.60
2018-01-27T16:01:24.331Z,5.70
2018-01-27T16:03:51.836Z,5.80
2018-01-27T16:06:19.330Z,5.80
2018-01-27T16:08:47.570Z,5.80
2018-01-27T16:11:15.066Z,5.70
2018-01-27T16:13:42.530Z,5.80
2018-01-27T16:16:10.032Z,5.70
2018-01-27T16:18:38.283Z,5.50
2018-01-27T16:21:05.774Z,5.50
2018-01-27T16:23:33.257Z,5.40
2018-01-27T16:26:01.520Z,5.00
2018-01-27T16:28:28.998Z,4.90
2018-01-27T16:30:56.494Z,4.90
2018-01-27T16:33:24.757Z,4.80
2018-01-27T16:35:52.255Z,4.80
2018-01-27T16:38:19.764Z,4.90
2018-01-27T16:40:47.250Z,4.90
2018-01-27T16:43:14.731Z,5.00
2018-01-27T16:45:42.211Z,4.90
2018-01-27T16:48:09.708Z,4.90
2018-01-27T16:50:37.190Z,4.80
2018-01-27T16:53:04.683Z,4.80
2018-01-27T16:55:32.180Z,4.90
2018-01-27T16:57:59.683Z,4.90
2018-01-27T17:00:27.174Z,4.90
2018-01-27T17:02:54.680Z,4.90
2018-01-27T17:05:22.166Z,4.90
2018-01-27T17:07:49.671Z,4.90
2018-01-27T17:10:17.151Z,5.00
2018-01-27T17:12:44.651Z,5.00
2018-01-27T17:15:12.131Z,5.00
2018-01-27T17:17:39.633Z,4.90
2018-01-27T17:20:07.106Z,4.90
2018-01-27T17:22:35.374Z,4.90
2018-01-27T17:25:02.865Z,4.80
2018-01-27T17:27:31.135Z,4.90
2018-01-27T17:29:58.628Z,4.80
2018-01-27T17:32:26.943Z,5.00
2018-01-27T17:34:55.147Z,5.10
2018-01-27T17:37:22.651Z,5.00
2018-01-27T17:39:50.147Z,5.10
2018-01-27T17:42:17.643Z,5.10
2018-01-27T17:44:45.118Z,5.20
2018-01-27T17:47:12.624Z,5.20
2018-01-27T17:49:40.102Z,5.20
2018-01-27T17:52:07.601Z,5.30
2018-01-27T17:54:35.087Z,5.40
2018-01-27T17:57:02.592Z,5.30
2018-01-27T17:59:30.075Z,5.30
2018-01-27T18:01:57.580Z,5.30
2018-01-27T18:04:25.818Z,5.20
2018-01-27T18:06:53.318Z,5.20
2018-01-27T18:09:20.803Z,5.30
2018-01-27T18:11:49.070Z,5.10
2018-01-27T18:14:16.542Z,5.10
2018-01-27T18:16:44.039Z,5.10
2018-01-27T18:19:11.521Z,5.10
2018-01-27T18:21:39.023Z,5.10
2018-01-27T18:24:06.510Z,5.00
2018-01-27T18:26:34.021Z,5.00
2018-01-27T18:29:01.495Z,5.00
2018-01-27T18:31:28.999Z,5.00
2018-01-27T18:33:56.479Z,5.10
2018-01-27T18:36:23.979Z,5.00
2018-01-27T18:38:52.223Z,5.00
2018-01-27T18:41:20.594Z,4.90
2018-01-27T18:43:48.089Z,5.00
2018-01-27T18:46:15.605Z,5.10
2018-01-27T18:48:43.860Z,5.00
2018-01-27T18:51:11.366Z,5.00
2018-01-27T18:53:39.611Z,5.10
2018-01-27T18:56:07.090Z,5.10
2018-01-27T18:58:34.582Z,5.10
2018-01-27T19:01:02.068Z,5.10
2018-01-27T19:03:30.330Z,5.10
2018-01-27T19:05:57.816Z,5.00
2018-01-27T19:08:26.079Z,5.00
2018-01-27T19:10:53.562Z,5.00
2018-01-27T19:13:21.064Z,5.10
2018-01-27T19:15:48.543Z,5.10
2018-01-27T19:18:16.049Z,5.10
2018-01-27T19:20:43.526Z,5.10
2018-01-27T19:23:11.023Z,5.20
2018-01-27T19:25:39.263Z,5.10
2018-01-27T19:28:06.767Z,5.00
2018-01-27T19:30:34.248Z,5.10
2018-01-27T19:33:02.512Z,5.10
2018-01-27T19:35:29.987Z,5.00
2018-01-27T19:37:57.484Z,5.10
2018-01-27T19:40:25.732Z,5.00
2018-01-27T19:42:53.236Z,4.90
2018-01-27T19:45:20.721Z,5.00
2018-01-27T19:47:48.232Z,5.10
2018-01-27T19:50:15.708Z,5.10
2018-01-27T19:52:43.206Z,5.20
2018-01-27T19:55:11.459Z,5.20
2018-01-27T19:57:38.954Z,5.20
2018-01-27T20:00:06.439Z,5.20
2018-01-27T20:02:34.711Z,5.30
2018-01-27T20:05:02.190Z,5.30
2018-01-27T20:07:29.690Z,5.30
2018-01-27T20:09:57.162Z,5.40
2018-01-27T20:12:24.736Z,5.40
2018-01-27T20:14:52.224Z,5.40
2018-01-27T20:17:19.720Z,5.30
2018-01-27T20:19:47.196Z,5.40
2018-01-27T20:22:14.694Z,5.40
2018-01-27T20:24:42.949Z,5.50
2018-01-27T20:27:10.446Z,5.40
2018-01-27T20:29:38.695Z,5.40
2018-01-27T20:32:06.187Z,5.40
2018-01-27T20:34:33.666Z,5.50
2018-01-27T20:37:01.167Z,5.40
2018-01-27T20:39:28.652Z,5.40
2018-01-27T20:41:56.156Z,5.50
2018-01-27T20:44:23.635Z,5.60
2018-01-27T20:46:51.130Z,5.60
2018-01-27T20:49:18.603Z,5.50
2018-01-27T20:51:46.871Z,5.50
2018-01-27T20:54:14.346Z,5.50
2018-01-27T20:56:41.843Z,5.60
2018-01-27T20:59:09.316Z,5.50
2018-01-27T21:01:36.791Z,5.50
2018-01-27T21:04:04.399Z,5.60
2018-01-27T21:06:31.883Z,5.60
2018-01-27T21:08:59.374Z,5.60
2018-01-27T21:11:27.634Z,5.60
2018-01-27T21:13:55.135Z,5.60
2018-01-27T21:16:23.379Z,5.70
2018-01-27T21:18:50.894Z,5.60
2018-01-27T21:21:19.700Z,5.60
2018-01-27T21:23:47.958Z,5.60
2018-01-27T21:26:15.438Z,5.60
2018-01-27T21:28:42.942Z,5.60
2018-01-27T21:31:10.415Z,5.60
2018-01-27T21:33:37.919Z,5.70
2018-01-27T21:36:05.400Z,5.70
2018-01-27T21:38:32.896Z,5.70
2018-01-27T21:41:00.370Z,5.70
2018-01-27T21:43:28.635Z,5.60
2018-01-27T21:45:56.112Z,5.60
2018-01-27T21:48:23.611Z,5.60
2018-01-27T21:50:51.094Z,5.60
2018-01-27T21:53:18.589Z,5.60
2018-01-27T21:55:46.064Z,5.60
2018-01-27T21:58:13.563Z,5.60
2018-01-27T22:00:41.070Z,5.50
2018-01-27T22:03:08.572Z,5.50
2018-01-27T22:05:36.052Z,5.50
2018-01-27T22:08:03.558Z,5.40
2018-01-27T22:10:31.796Z,5.50
2018-01-27T22:12:59.291Z,5.40
2018-01-27T22:15:26.771Z,5.50
2018-01-27T22:17:54.270Z,5.50
2018-01-27T22:20:21.743Z,5.50
2018-01-27T22:22:49.238Z,5.60
2018-01-27T22:25:16.714Z,5.60
2018-01-27T22:27:44.216Z,5.70
2018-01-27T22:30:11.692Z,5.70
2018-01-27T22:32:39.198Z,5.60
2018-01-27T22:35:06.674Z,5.70
2018-01-27T22:37:34.171Z,5.70
2018-01-27T22:40:01.645Z,5.60
2018-01-27T22:42:29.142Z,5.60
2018-01-27T22:44:56.620Z,5.60
2018-01-27T22:47:24.114Z,5.70
2018-01-27T22:49:51.594Z,5.70
2018-01-27T22:52:19.090Z,5.70
2018-01-27T22:54:46.566Z,5.60
2018-01-27T22:57:14.054Z,5.60
2018-01-27T22:59:41.535Z,5.60
2018-01-27T23:02:09.035Z,5.70
2018-01-27T23:04:36.511Z,5.60
2018-01-27T23:07:03.993Z,5.60
2018-01-27T23:09:31.486Z,5.70
2018-01-27T23:11:58.998Z,5.70
2018-01-27T23:14:27.258Z,5.80
2018-01-27T23:16:54.731Z,5.70
2018-01-27T23:19:22.226Z,5.80
2018-01-27T23:21:50.472Z,5.80
2018-01-27T23:24:17.964Z,5.80
2018-01-27T23:26:45.450Z,5.80
2018-01-27T23:29:13.715Z,5.90
2018-01-27T23:31:41.191Z,5.80
2018-01-27T23:34:08.684Z,5.80
2018-01-27T23:36:36.927Z,5.90
2018-01-27T23:39:04.422Z,5.90
2018-01-27T23:41:31.898Z,5.90
2018-01-27T23:43:59.395Z,5.90
2018-01-27T23:46:26.875Z,5.90
2018-01-27T23:48:54.376Z,5.90
2018-01-27T23:51:21.854Z,5.90
2018-01-27T23:53:49.346Z,5.80
2018-01-27T23:56:16.831Z,5.80
2018-01-27T23:58:45.099Z,6.00
